Time;durP1;ratioP1;P1;durP2;ratioP2;P2;SDS_P1;SDS_P2;PMS_P1;PMS_P2;Temp;Humidity;BMP_temperature;BMP_pressure;BME280_temperature;BME280_humidity;BME280_pressure;Samples;Min_cycle;Max_cycle;Signal;HPM_P1;HPM_P2
2021/03/21 00:01:51;;;;;;;31.02;19.62;;;;;;;-1.10;60.40;100713.98;127946;1101;22494;-69
2021/03/21 00:04:20;;;;;;;30.77;19.25;;;;;;;-1.05;60.58;100708.53;127937;1101;22495;-69
2021/03/21 00:06:48;;;;;;;26.48;18.75;;;;;;;-1.01;61.04;100691.88;127942;1101;24052;-69
2021/03/21 00:09:16;;;;;;;31.73;18.73;;;;;;;-0.97;61.27;100689.05;127973;1099;22491;-69
2021/03/21 00:11:44;;;;;;;30.40;19.05;;;;;;;-0.91;60.89;100690.44;127941;1101;22499;-69
2021/03/21 00:14:12;;;;;;;28.62;17.92;;;;;;;-0.90;60.56;100688.68;127924;1101;22475;-69
2021/03/21 00:16:40;;;;;;;29.35;18.70;;;;;;;-0.91;60.34;100682.66;127999;1101;22499;-69
2021/03/21 00:19:10;;;;;;;33.18;19.60;;;;;;;-0.89;60.54;100678.23;127987;1101;22695;-70
2021/03/21 00:21:38;;;;;;;29.63;18.32;;;;;;;-0.83;60.95;100672.70;127934;1099;24716;-70
2021/03/21 00:24:07;;;;;;;26.17;16.45;;;;;;;-0.77;61.32;100682.74;127966;1101;22611;-70
2021/03/21 00:26:36;;;;;;;26.82;14.87;;;;;;;-0.73;60.91;100671.26;127974;1101;22629;-69
2021/03/21 00:29:06;;;;;;;22.35;14.95;;;;;;;-0.73;60.66;100666.07;127933;1099;22404;-70
2021/03/21 00:31:35;;;;;;;29.82;16.05;;;;;;;-0.73;60.46;100658.28;127939;1101;22529;-70
2021/03/21 00:34:05;;;;;;;20.45;14.55;;;;;;;-0.72;60.83;100654.76;127926;1101;22497;-70
2021/03/21 00:36:33;;;;;;;27.98;14.50;;;;;;;-0.72;60.84;100644.37;127948;1101;22502;-70
2021/03/21 00:39:01;;;;;;;20.97;13.75;;;;;;;-0.73;60.64;100642.72;127961;1101;22608;-70
2021/03/21 00:41:30;;;;;;;28.30;16.25;;;;;;;-0.71;60.70;100640.02;127980;1101;22598;-70
2021/03/21 00:43:59;;;;;;;23.13;13.50;;;;;;;-0.71;60.81;100627.05;127959;1100;24600;-70
2021/03/21 00:46:27;;;;;;;21.27;14.30;;;;;;;-0.71;61.21;100620.09;128014;1101;22478;-70
2021/03/21 00:48:55;;;;;;;22.50;14.53;;;;;;;-0.69;60.87;100606.23;127952;1100;24408;-70
2021/03/21 00:51:23;;;;;;;21.80;13.72;;;;;;;-0.70;60.63;100600.17;127939;1101;22583;-70
2021/03/21 00:53:52;;;;;;;26.82;16.05;;;;;;;-0.71;60.45;100603.70;127977;1101;25155;-70
2021/03/21 00:56:34;;;;;;;25.37;15.80;;;;;;;-0.68;60.57;100594.91;128221;1100;24334;-70
2021/03/21 00:59:03;;;;;;;22.10;15.03;;;;;;;-0.72;60.94;100595.09;127957;1101;22629;-70
2021/03/21 01:01:33;;;;;;;24.95;16.20;;;;;;;-0.70;60.54;100579.42;127949;1101;22639;-70
2021/03/21 01:04:03;;;;;;;27.87;16.10;;;;;;;-0.68;60.93;100576.75;127930;1101;22594;-70
2021/03/21 01:06:33;;;;;;;25.17;15.10;;;;;;;-0.67;60.94;100571.45;127981;1101;22518;-70
2021/03/21 01:09:09;;;;;;;26.70;15.97;;;;;;;-0.62;60.77;100561.66;127921;1100;24603;-70
2021/03/21 01:11:39;;;;;;;30.43;16.52;;;;;;;-0.61;60.38;100552.94;128006;1101;24628;-70
2021/03/21 01:14:09;;;;;;;23.83;14.87;;;;;;;-0.60;60.67;100553.77;128018;1100;22521;-70
2021/03/21 01:16:42;;;;;;;25.52;14.80;;;;;;;-0.61;60.13;100539.97;127976;1101;22523;-70
2021/03/21 01:19:17;;;;;;;21.87;14.87;;;;;;;-0.61;60.22;100533.95;128015;1101;24673;-70
2021/03/21 01:21:47;;;;;;;22.45;14.38;;;;;;;-0.63;60.03;100533.19;127918;1101;22528;-71
2021/03/21 01:24:21;;;;;;;25.35;15.15;;;;;;;-0.67;60.55;100523.93;127944;1100;22498;-71
2021/03/21 01:26:51;;;;;;;22.82;15.65;;;;;;;-0.67;60.28;100516.14;127955;1099;22496;-71
2021/03/21 01:29:19;;;;;;;21.48;14.95;;;;;;;-0.65;59.87;100509.95;127952;1101;22573;-71
2021/03/21 01:31:48;;;;;;;20.57;14.10;;;;;;;-0.65;60.80;100503.93;127941;1101;22482;-71
2021/03/21 01:34:16;;;;;;;23.25;14.38;;;;;;;-0.65;60.11;100493.55;128211;1101;25302;-71
2021/03/21 01:36:45;;;;;;;23.38;14.38;;;;;;;-0.63;59.93;100492.54;127957;1099;24743;-70
2021/03/21 01:39:25;;;;;;;23.83;15.45;;;;;;;-0.61;60.20;100472.50;127915;1100;24578;-71
2021/03/21 01:42:02;;;;;;;24.10;14.65;;;;;;;-0.59;60.44;100475.02;127950;1101;22510;-70
2021/03/21 01:44:30;;;;;;;20.50;14.38;;;;;;;-0.59;60.09;100470.66;128055;1100;24539;-71
2021/03/21 01:46:58;;;;;;;20.30;13.33;;;;;;;-0.54;59.82;100468.60;127922;1101;22479;-70
2021/03/21 01:49:36;;;;;;;23.30;13.95;;;;;;;-0.52;60.12;100464.16;127930;1101;24461;-70
2021/03/21 01:52:06;;;;;;;22.77;14.25;;;;;;;-0.51;59.65;100460.63;127931;1101;22533;-70
2021/03/21 01:54:35;;;;;;;25.85;14.33;;;;;;;-0.51;60.49;100455.44;128043;1101;22625;-74
2021/03/21 01:57:05;;;;;;;22.67;13.83;;;;;;;-0.48;60.55;100452.66;127934;1101;22527;-70
2021/03/21 01:59:35;;;;;;;21.25;14.23;;;;;;;-0.46;60.28;100451.75;127965;1101;22999;-70
2021/03/21 02:02:04;;;;;;;21.20;14.47;;;;;;;-0.41;59.68;100434.13;127933;1100;22950;-77
2021/03/21 02:04:33;;;;;;;20.32;13.83;;;;;;;-0.40;60.34;100430.59;127951;1101;22498;-77
2021/03/21 02:07:26;;;;;;;24.35;16.45;;;;;;;-0.41;60.02;100434.13;128224;1099;22641;-77
2021/03/21 02:09:59;;;;;;;;;;;;;;;-0.44;60.18;100429.95;128244;1101;22489;-77
2021/03/21 02:12:53;;;;;;;28.27;14.68;;;;;;;-0.48;59.70;100418.92;127992;1101;21312;-77
2021/03/21 02:15:41;;;;;;;21.95;14.80;;;;;;;-0.45;60.19;100414.48;127994;1101;24430;-77
2021/03/21 02:18:20;;;;;;;24.07;14.73;;;;;;;-0.44;60.10;100403.99;127996;1100;22580;-77
2021/03/21 02:21:28;;;;;;;22.50;15.25;;;;;;;-0.40;59.70;100394.25;128235;1101;22496;-78
2021/03/21 02:24:30;;;;;;;25.12;13.85;;;;;;;-0.38;59.44;100395.00;127988;1101;22696;-78
2021/03/21 02:27:45;;;;;;;25.10;13.45;;;;;;;-0.41;59.86;100392.59;127917;1101;22598;-78
2021/03/21 02:30:27;;;;;;;23.60;13.38;;;;;;;-0.47;59.28;100375.63;127953;1104;23884;-78
2021/03/21 02:33:17;;;;;;;23.38;14.05;;;;;;;-0.46;59.64;100372.13;127947;1103;22709;-78
2021/03/21 02:36:19;;;;;;;21.90;14.03;;;;;;;-0.44;59.04;100372.02;127908;1103;22523;-78
2021/03/21 02:38:52;;;;;;;28.27;15.95;;;;;;;-0.43;59.90;100360.70;127932;1103;22598;-77
2021/03/21 02:41:38;;;;;;;22.63;14.27;;;;;;;-0.40;59.54;100361.37;127943;1103;22627;-77
2021/03/21 02:44:16;;;;;;;17.87;12.95;;;;;;;-0.36;59.54;100351.63;127507;1105;22637;-79
2021/03/21 02:47:00;;;;;;;21.42;13.10;;;;;;;-0.36;59.35;100339.47;127792;1104;25100;-77
2021/03/21 02:49:58;;;;;;;26.95;14.98;;;;;;;-0.40;58.70;100335.41;127517;1105;24696;-78
2021/03/21 02:52:35;;;;;;;19.95;13.32;;;;;;;-0.43;59.29;100322.63;127929;1103;22545;-78
2021/03/21 02:55:26;;;;;;;22.53;13.20;;;;;;;-0.44;59.29;100325.30;127938;1104;22528;-78
2021/03/21 02:58:04;;;;;;;18.30;11.90;;;;;;;-0.44;58.78;100323.54;127528;1105;22546;-78
2021/03/21 03:00:43;;;;;;;17.75;12.07;;;;;;;-0.45;59.18;100326.24;127918;1104;22645;-78
2021/03/21 03:03:17;;;;;;;20.90;13.18;;;;;;;-0.42;59.54;100313.08;127603;1102;22509;-79
2021/03/21 03:05:51;;;;;;;20.57;13.00;;;;;;;-0.42;59.69;100310.48;127962;1101;22504;-79
2021/03/21 03:08:33;;;;;;;16.17;11.57;;;;;;;-0.39;59.03;100308.52;127969;1101;23253;-77
2021/03/21 03:11:11;;;;;;;19.48;13.08;;;;;;;-0.42;59.25;100300.92;128027;1101;22535;-77
2021/03/21 03:13:44;;;;;;;15.38;11.93;;;;;;;-0.40;59.19;100288.70;128005;1101;22570;-77
2021/03/21 03:17:05;;;;;;;18.50;11.90;;;;;;;-0.41;58.82;100279.22;127980;1101;22626;-79
2021/03/21 03:20:12;;;;;;;17.75;11.93;;;;;;;-0.41;59.25;100279.22;128222;1101;23248;-79
2021/03/21 03:22:51;;;;;;;16.93;11.08;;;;;;;-0.43;59.30;100269.86;127960;1101;24588;-75
2021/03/21 03:25:35;;;;;;;19.63;12.33;;;;;;;-0.41;59.68;100265.42;128168;1100;22479;-75
2021/03/21 03:28:42;;;;;;;17.80;10.95;;;;;;;-0.36;59.78;100243.44;128225;1100;22508;-76
2021/03/21 03:31:34;;;;;;;19.70;12.20;;;;;;;-0.33;59.69;100245.83;128205;1099;22473;-76
2021/03/21 03:34:03;;;;;;;19.30;11.88;;;;;;;-0.26;59.35;100254.05;128189;1100;22479;-75
2021/03/21 03:36:33;;;;;;;20.20;11.33;;;;;;;-0.22;59.65;100249.48;127953;1101;22731;-78
2021/03/21 03:39:03;;;;;;;21.02;11.30;;;;;;;-0.17;59.33;100242.20;128238;1101;22507;-78
2021/03/21 03:41:44;;;;;;;17.02;10.88;;;;;;;-0.17;59.76;100235.24;127964;1101;22623;-78
2021/03/21 03:44:22;;;;;;;16.50;10.65;;;;;;;-0.20;59.07;100230.28;128028;1101;22601;-78
2021/03/21 03:47:27;;;;;;;16.35;10.98;;;;;;;-0.27;59.34;100224.66;128206;1099;22777;-78
2021/03/21 03:50:29;;;;;;;15.10;10.53;;;;;;;-0.32;59.28;100226.72;128020;1101;22623;-79
2021/03/21 03:53:44;;;;;;;16.70;10.78;;;;;;;-0.33;59.69;100224.23;128258;1101;24689;-78
2021/03/21 03:56:22;;;;;;;17.80;10.72;;;;;;;-0.33;59.66;100216.45;127958;1101;23242;-78
2021/03/21 03:59:02;;;;;;;15.32;10.65;;;;;;;-0.32;59.57;100205.95;128152;1101;22531;-78
2021/03/21 04:01:48;;;;;;;19.95;10.43;;;;;;;-0.33;59.63;100206.89;128156;1100;23133;-78
2021/03/21 04:04:50;;;;;;;14.28;9.50;;;;;;;-0.27;60.39;100195.25;127983;1101;22573;-78
2021/03/21 04:07:58;;;;;;;16.70;9.33;;;;;;;-0.28;60.17;100191.83;127965;1101;24633;-79
2021/03/21 04:10:55;;;;;;;19.73;9.63;;;;;;;-0.29;60.51;100194.55;128255;1100;22482;-78
2021/03/21 04:13:38;;;;;;;13.95;10.63;;;;;;;-0.27;60.02;100183.13;128001;1101;22528;-77
2021/03/21 04:16:10;;;;;;;16.02;9.88;;;;;;;-0.28;60.10;100178.85;128254;1099;22491;-79
2021/03/21 04:18:44;;;;;;;;;;;;;;;-0.34;59.69;100173.23;128082;1101;22658;-78
2021/03/21 04:21:53;;;;;;;14.15;10.38;;;;;;;-0.39;60.35;100159.75;127953;1101;21959;-77
2021/03/21 04:24:31;;;;;;;17.20;11.25;;;;;;;-0.36;60.12;100162.97;127548;1104;22540;-78
2021/03/21 04:27:11;;;;;;;17.20;10.80;;;;;;;-0.31;60.84;100166.08;127557;1104;22548;-77
2021/03/21 04:30:03;;;;;;;21.85;12.65;;;;;;;-0.29;60.12;100158.20;127575;1102;22638;-78
2021/03/21 04:32:46;;;;;;;14.68;10.63;;;;;;;-0.31;60.17;100154.87;127566;1104;22552;-78
2021/03/21 04:35:35;;;;;;;17.17;10.78;;;;;;;-0.32;60.64;100150.62;127624;1104;22549;-77
2021/03/21 04:38:15;;;;;;;16.87;10.77;;;;;;;-0.29;60.61;100150.41;127604;1105;22724;-78
2021/03/21 04:40:45;;;;;;;15.83;9.67;;;;;;;-0.28;60.50;100134.72;127561;1104;22527;-78
2021/03/21 04:43:37;;;;;;;14.50;10.25;;;;;;;-0.27;60.82;100131.22;127534;1103;24825;-79
2021/03/21 04:46:16;;;;;;;12.65;8.55;;;;;;;-0.27;60.99;100132.95;127614;1104;22633;-79
2021/03/21 04:48:45;;;;;;;13.88;10.40;;;;;;;-0.26;60.91;100132.86;127480;1104;22267;-78
2021/03/21 04:51:33;;;;;;;14.35;9.30;;;;;;;-0.27;60.92;100114.78;127905;1102;22760;-78
2021/03/21 04:54:28;;;;;;;16.10;10.65;;;;;;;-0.27;60.18;100120.83;127519;1102;24619;-78
2021/03/21 04:57:14;;;;;;;17.20;10.65;;;;;;;-0.29;60.50;100121.86;127474;1106;22632;-78
2021/03/21 04:59:44;;;;;;;18.52;10.65;;;;;;;-0.30;61.01;100115.84;127396;1106;22551;-77
2021/03/21 05:02:29;;;;;;;13.93;9.43;;;;;;;-0.26;61.62;100121.66;127394;1106;22503;-77
2021/03/21 05:05:29;;;;;;;14.55;10.03;;;;;;;-0.24;61.34;100117.17;127660;1103;22509;-78
2021/03/21 05:08:25;;;;;;;18.20;10.48;;;;;;;-0.18;61.58;100113.34;127551;1103;22533;-78
2021/03/21 05:11:02;;;;;;;14.78;9.88;;;;;;;-0.17;60.78;100099.41;127513;1105;22584;-78
2021/03/21 05:13:49;;;;;;;15.55;10.10;;;;;;;-0.17;61.02;100100.23;127538;1105;22513;-77
2021/03/21 05:16:26;;;;;;;15.35;9.53;;;;;;;-0.18;60.62;100090.80;127641;1105;22551;-77
2021/03/21 05:19:26;;;;;;;16.12;9.93;;;;;;;-0.15;61.12;100085.39;127593;1105;22515;-78
2021/03/21 05:22:02;;;;;;;16.25;10.23;;;;;;;-0.12;61.83;100085.19;127932;1105;22521;-79
2021/03/21 05:24:55;;;;;;;16.50;12.37;;;;;;;-0.06;61.56;100083.94;127502;1103;22633;-78
2021/03/21 05:27:30;;;;;;;;;;;;;;;-0.10;61.25;100074.68;127602;1105;22595;-78
2021/03/21 05:30:02;;;;;;;21.62;11.83;;;;;;;-0.17;61.42;100069.08;128060;1104;21351;-78
2021/03/21 05:32:31;;;;;;;14.90;9.88;;;;;;;-0.14;61.86;100063.67;127513;1103;22519;-78
2021/03/21 05:35:00;;;;;;;18.80;11.43;;;;;;;-0.10;61.10;100069.48;127856;1101;24590;-78
2021/03/21 05:38:10;;;;;;;17.10;11.28;;;;;;;-0.07;61.18;100070.13;127961;1101;22495;-78
2021/03/21 05:41:09;;;;;;;22.42;11.50;;;;;;;-0.04;61.59;100062.10;128011;1101;22601;-78
2021/03/21 05:44:15;;;;;;;13.40;10.03;;;;;;;0.02;61.59;100062.62;128192;1099;22631;-79
2021/03/21 05:47:29;;;;;;;18.45;11.08;;;;;;;0.06;61.32;100064.06;127973;1101;24327;-79
2021/03/21 05:50:35;;;;;;;20.60;10.63;;;;;;;0.11;61.24;100061.98;128017;1101;24623;-78
2021/03/21 05:53:43;;;;;;;16.60;11.00;;;;;;;0.15;61.89;100059.05;128222;1101;22531;-78
2021/03/21 05:57:18;;;;;;;17.70;11.03;;;;;;;0.18;61.74;100050.22;128209;1101;23249;-78
2021/03/21 06:00:17;;;;;;;31.68;22.90;;;;;;;0.14;61.21;100048.78;127905;1104;22588;-78
2021/03/21 06:03:11;;;;;;;43.83;29.55;;;;;;;0.13;61.44;100034.12;127889;1105;22551;-78
2021/03/21 06:06:09;;;;;;;22.20;15.58;;;;;;;0.13;61.50;100032.34;127903;1103;24641;-78
2021/03/21 06:09:27;;;;;;;15.32;11.65;;;;;;;0.17;61.56;100036.41;127525;1104;24623;-78
2021/03/21 06:12:26;;;;;;;17.85;12.68;;;;;;;0.18;61.80;100021.64;127643;1104;22519;-78
2021/03/21 06:15:44;;;;;;;23.18;15.53;;;;;;;0.20;61.55;100022.34;127900;1102;23591;-78
2021/03/21 06:18:44;;;;;;;24.85;17.00;;;;;;;0.25;61.57;100016.84;127939;1103;22504;-78
2021/03/21 06:21:41;;;;;;;27.07;22.95;;;;;;;0.31;61.79;100017.23;127495;1106;22539;-79
2021/03/21 06:24:46;;;;;;;24.30;18.37;;;;;;;0.30;61.88;100012.98;127318;1106;22542;-78
2021/03/21 06:27:58;;;;;;;22.52;18.30;;;;;;;0.30;61.97;100012.12;127353;1105;24744;-79
2021/03/21 06:30:54;;;;;;;31.33;23.35;;;;;;;0.24;62.20;100013.42;127393;1107;22739;-78
2021/03/21 06:33:45;;;;;;;27.73;18.90;;;;;;;0.28;62.91;100006.23;127495;1106;22642;-77
2021/03/21 06:36:20;;;;;;;32.50;18.32;;;;;;;0.30;62.45;100007.79;127186;1105;22525;-72
2021/03/21 06:39:28;;;;;;;39.60;30.57;;;;;;;0.35;62.03;100007.45;127679;1105;22582;-73
2021/03/21 06:42:46;;;;;;;37.58;33.40;;;;;;;0.36;62.60;99996.10;127532;1105;22572;-72
2021/03/21 06:46:00;;;;;;;20.65;18.32;;;;;;;0.35;62.99;99992.68;127864;1104;24356;-72
2021/03/21 06:49:13;;;;;;;18.73;15.45;;;;;;;0.41;62.88;99999.20;127749;1105;22623;-73
2021/03/21 06:52:14;;;;;;;18.32;13.85;;;;;;;0.42;63.08;99990.47;127052;1108;22586;-73
2021/03/21 06:55:01;;;;;;;18.37;14.25;;;;;;;0.49;62.74;99993.45;127458;1106;22530;-73
2021/03/21 06:58:22;;;;;;;24.05;15.85;;;;;;;0.53;63.00;99981.88;127005;1108;22508;-72
2021/03/21 07:01:36;;;;;;;39.73;24.63;;;;;;;0.61;63.67;99969.98;126904;1109;22537;-73
2021/03/21 07:04:14;;;;;;;27.93;18.35;;;;;;;0.67;63.29;99976.52;126902;1111;23423;-72
2021/03/21 07:06:54;;;;;;;18.07;13.35;;;;;;;0.74;62.96;99962.11;126972;1108;22676;-72
2021/03/21 07:09:50;;;;;;;27.17;16.82;;;;;;;0.82;63.66;99958.92;127290;1107;22834;-72
2021/03/21 07:12:52;;;;;;;24.47;17.75;;;;;;;0.92;63.94;99954.69;127427;1106;22551;-72
2021/03/21 07:15:23;;;;;;;24.37;16.60;;;;;;;1.01;63.44;99956.60;127036;1108;22546;-73
2021/03/21 07:17:54;;;;;;;17.55;14.80;;;;;;;1.11;63.17;99949.75;127314;1108;23535;-73
2021/03/21 07:21:06;;;;;;;20.02;16.55;;;;;;;1.20;63.48;99942.17;127353;1107;22661;-72
2021/03/21 07:24:11;;;;;;;19.25;15.88;;;;;;;1.20;63.04;99942.17;127729;1103;24649;-73
2021/03/21 07:27:15;;;;;;;20.05;14.83;;;;;;;1.21;62.77;99943.86;127424;1105;22541;-72
2021/03/21 07:29:48;;;;;;;21.52;16.37;;;;;;;1.25;63.19;99940.06;127862;1104;23241;-72
2021/03/21 07:33:11;;;;;;;21.82;16.35;;;;;;;1.31;63.12;99934.39;127438;1105;22598;-73
2021/03/21 07:36:17;;;;;;;20.85;17.30;;;;;;;1.36;64.15;99930.47;128052;1100;22537;-73
2021/03/21 07:39:07;;;;;;;22.25;19.60;;;;;;;1.44;63.97;99929.89;127946;1101;24262;-72
2021/03/21 07:41:45;;;;;;;19.45;17.25;;;;;;;1.54;63.36;99932.61;127952;1101;24283;-72
2021/03/21 07:44:51;;;;;;;21.02;16.57;;;;;;;1.58;63.75;99918.39;127936;1101;22613;-72
2021/03/21 07:47:33;;;;;;;22.15;16.82;;;;;;;1.53;63.55;99916.13;128113;1101;22626;-72
2021/03/21 07:50:37;;;;;;;18.02;15.65;;;;;;;1.51;63.09;99909.41;128178;1101;22532;-72
2021/03/21 07:53:20;;;;;;;26.27;20.77;;;;;;;1.46;63.78;99901.13;128123;1099;22617;-72
2021/03/21 07:56:16;;;;;;;28.83;22.17;;;;;;;1.50;64.02;99903.39;128220;1101;24304;-72
2021/03/21 07:59:04;;;;;;;24.25;17.12;;;;;;;1.51;64.14;99888.59;127944;1101;24865;-72
2021/03/21 08:01:32;;;;;;;25.30;19.23;;;;;;;1.46;63.61;99901.95;127979;1100;22503;-72
2021/03/21 08:04:15;;;;;;;30.32;23.00;;;;;;;1.48;63.73;99896.64;127932;1100;22502;-72
2021/03/21 08:06:58;;;;;;;24.23;19.52;;;;;;;1.51;64.01;99891.19;128108;1100;22706;-72
2021/03/21 08:09:37;;;;;;;26.02;19.20;;;;;;;1.52;64.04;99885.03;127924;1101;22589;-73
2021/03/21 08:12:20;;;;;;;27.73;20.72;;;;;;;1.59;64.21;99886.19;128241;1100;22503;-72
2021/03/21 08:15:14;;;;;;;36.00;25.57;;;;;;;1.64;64.33;99878.86;128145;1101;22501;-74
2021/03/21 08:17:51;;;;;;;31.20;22.80;;;;;;;1.67;64.16;99877.77;127980;1101;22512;-73
2021/03/21 08:20:28;;;;;;;25.12;20.05;;;;;;;1.68;64.41;99871.63;128007;1101;24686;-71
2021/03/21 08:23:28;;;;;;;30.73;24.97;;;;;;;1.69;64.56;99871.49;128162;1100;22513;-73
2021/03/21 08:26:00;;;;;;;30.15;22.62;;;;;;;1.70;64.67;99869.71;128004;1101;23686;-71
2021/03/21 08:28:38;;;;;;;29.10;22.45;;;;;;;1.72;64.48;99862.62;127995;1101;24588;-71
2021/03/21 08:31:12;;;;;;;22.17;18.25;;;;;;;1.70;65.02;99865.36;128052;1101;23303;-72
2021/03/21 08:33:44;;;;;;;23.90;18.67;;;;;;;1.72;64.96;99850.42;127932;1101;22531;-71
2021/03/21 08:36:23;;;;;;;;;;;;;;;1.68;65.71;99849.02;128034;1101;22497;-71
2021/03/21 08:39:19;;;;;;;27.97;22.00;;;;;;;1.63;65.08;99845.94;127953;1101;22963;-70
2021/03/21 08:41:58;;;;;;;22.52;18.77;;;;;;;1.65;65.68;99844.05;127979;1100;22535;-71
2021/03/21 08:44:32;;;;;;;29.85;22.05;;;;;;;1.73;66.20;99846.85;128009;1099;24334;-71
2021/03/21 08:47:03;;;;;;;29.52;24.23;;;;;;;1.82;66.09;99850.50;128139;1100;22500;-71
2021/03/21 08:49:45;;;;;;;29.70;24.90;;;;;;;1.89;66.01;99844.67;127930;1101;25149;-71
2021/03/21 08:52:42;;;;;;;31.57;26.73;;;;;;;1.94;66.32;99835.67;127979;1101;22539;-71
2021/03/21 08:55:27;;;;;;;34.08;26.23;;;;;;;1.99;65.81;99843.92;127945;1101;22584;-71
2021/03/21 08:57:56;;;;;;;31.40;26.10;;;;;;;2.01;66.05;99826.41;127968;1101;22490;-71
2021/03/21 09:00:27;;;;;;;41.10;36.63;;;;;;;2.09;66.34;99827.41;127929;1101;22482;-71
2021/03/21 09:02:55;;;;;;;29.67;25.37;;;;;;;2.19;67.17;99824.05;128004;1101;22489;-70
2021/03/21 09:05:25;;;;;;;32.00;26.80;;;;;;;2.24;67.15;99816.69;127971;1101;25875;-72
2021/03/21 09:07:57;;;;;;;29.40;23.00;;;;;;;2.27;66.54;99826.86;128011;1101;22535;-71
2021/03/21 09:10:32;;;;;;;24.75;20.88;;;;;;;2.32;66.89;99825.51;128198;1100;22539;-70
2021/03/21 09:13:06;;;;;;;28.02;24.57;;;;;;;2.41;67.24;99820.50;128239;1101;24610;-71
2021/03/21 09:15:40;;;;;;;25.82;22.50;;;;;;;2.44;66.93;99821.06;128104;1100;22500;-71
2021/03/21 09:18:16;;;;;;;31.27;26.07;;;;;;;2.48;67.61;99817.23;127978;1099;22622;-71
2021/03/21 09:21:02;;;;;;;29.65;25.60;;;;;;;2.57;68.27;99816.47;128237;1099;22884;-71
2021/03/21 09:23:59;;;;;;;30.90;26.27;;;;;;;2.65;68.24;99823.64;127986;1099;22535;-71
2021/03/21 09:26:42;;;;;;;28.07;24.27;;;;;;;2.67;68.01;99813.09;127985;1101;22480;-73
2021/03/21 09:29:32;;;;;;;35.00;29.42;;;;;;;2.67;67.99;99813.91;128159;1101;23508;-72
2021/03/21 09:32:34;;;;;;;30.97;27.37;;;;;;;2.67;68.71;99803.48;128384;1099;24597;-72
2021/03/21 09:35:41;;;;;;;28.77;25.55;;;;;;;2.69;68.60;99804.16;127794;1103;24613;-71
2021/03/21 09:38:21;;;;;;;30.90;27.37;;;;;;;2.73;68.24;99809.94;127935;1103;22574;-73
2021/03/21 09:41:05;;;;;;;46.65;33.98;;;;;;;2.75;68.59;99808.03;127875;1103;25077;-72
2021/03/21 09:43:38;;;;;;;32.83;27.73;;;;;;;2.72;68.03;99809.12;127552;1104;24712;-72
2021/03/21 09:46:44;;;;;;;35.55;29.07;;;;;;;2.73;68.69;99809.94;127902;1103;23128;-72
2021/03/21 09:49:40;;;;;;;37.27;29.80;;;;;;;2.77;69.41;99798.31;127938;1102;22668;-73
2021/03/21 09:52:20;;;;;;;47.85;36.10;;;;;;;2.75;68.95;99808.86;127894;1104;25137;-72
2021/03/21 09:55:32;;;;;;;57.23;43.90;;;;;;;2.73;68.93;99796.89;127925;1104;25102;-72
2021/03/21 09:58:44;;;;;;;36.60;32.35;;;;;;;2.68;68.59;99810.34;127497;1104;22510;-72
2021/03/21 10:01:48;;;;;;;48.55;38.25;;;;;;;2.62;68.54;99808.25;127364;1106;22886;-72
2021/03/21 10:05:34;;;;;;;41.65;35.30;;;;;;;2.61;69.19;99809.22;127011;1107;22530;-72
2021/03/21 10:08:32;;;;;;;48.28;40.92;;;;;;;2.52;69.67;99804.77;126858;1111;24402;-72
2021/03/21 10:11:08;;;;;;;55.08;44.30;;;;;;;2.47;69.85;99804.34;126901;1109;24616;-73
2021/03/21 10:13:41;;;;;;;44.40;37.30;;;;;;;2.49;69.20;99805.02;126941;1108;24572;-72
2021/03/21 10:16:16;;;;;;;40.55;34.80;;;;;;;2.56;70.01;99800.94;127042;1107;22537;-72
2021/03/21 10:19:05;;;;;;;55.45;41.60;;;;;;;2.64;70.21;99797.70;126988;1109;24480;-73
2021/03/21 10:21:42;;;;;;;39.30;32.60;;;;;;;2.63;69.39;99790.81;127065;1107;24654;-73
2021/03/21 10:24:22;;;;;;;72.07;51.07;;;;;;;2.60;70.32;99789.31;127251;1108;23404;-72
2021/03/21 10:27:15;;;;;;;46.50;38.58;;;;;;;2.56;70.27;99795.72;127366;1107;25144;-72
2021/03/21 10:30:06;;;;;;;68.65;51.37;;;;;;;2.51;69.93;99801.34;127452;1105;22547;-72
2021/03/21 10:32:44;;;;;;;46.90;37.00;;;;;;;2.47;70.69;99786.92;126712;1111;22564;-72
2021/03/21 10:35:33;;;;;;;48.15;39.63;;;;;;;2.48;69.96;99793.77;126905;1109;22566;-73
2021/03/21 10:38:12;;;;;;;69.35;52.10;;;;;;;2.48;70.14;99791.17;126770;1111;22646;-71
2021/03/21 10:40:44;;;;;;;74.67;60.43;;;;;;;2.47;70.17;99789.52;126966;1109;22658;-72
2021/03/21 10:43:21;;;;;;;61.73;51.80;;;;;;;2.47;71.05;99784.31;127023;1107;22526;-72
2021/03/21 10:45:55;;;;;;;58.55;49.83;;;;;;;2.46;71.24;99789.64;127370;1107;22533;-72
2021/03/21 10:48:24;;;;;;;60.65;50.55;;;;;;;2.46;71.46;99782.64;127376;1106;22722;-72
2021/03/21 10:51:14;;;;;;;60.30;53.73;;;;;;;2.48;70.53;99778.13;127352;1107;22657;-72
2021/03/21 10:53:53;;;;;;;49.85;44.40;;;;;;;2.48;71.61;99779.92;127362;1107;22612;-72
2021/03/21 10:56:27;;;;;;;56.23;49.15;;;;;;;2.46;71.63;99774.81;127406;1106;23462;-73
2021/03/21 10:59:21;;;;;;;65.75;52.43;;;;;;;2.50;71.10;99780.59;127330;1107;22578;-73
2021/03/21 11:01:50;;;;;;;74.27;60.55;;;;;;;2.56;71.12;99778.30;127344;1106;22536;-73
2021/03/21 11:04:22;;;;;;;61.63;52.03;;;;;;;2.57;71.66;99774.75;127294;1107;22944;-72
2021/03/21 11:07:04;;;;;;;70.37;60.10;;;;;;;2.52;71.14;99776.91;127365;1108;22510;-72
2021/03/21 11:09:34;;;;;;;66.87;59.13;;;;;;;2.57;71.48;99768.72;127642;1104;22641;-73
2021/03/21 11:12:06;;;;;;;61.60;54.90;;;;;;;2.67;72.35;99768.76;127500;1104;24607;-72
2021/03/21 11:14:37;;;;;;;61.95;55.35;;;;;;;2.76;72.37;99765.34;127936;1101;22900;-73
2021/03/21 11:17:26;;;;;;;68.85;60.17;;;;;;;2.80;71.65;99769.36;128220;1100;24356;-72
2021/03/21 11:19:57;;;;;;;61.00;54.50;;;;;;;2.87;71.58;99757.43;128015;1101;22602;-72
2021/03/21 11:22:38;;;;;;;62.80;56.35;;;;;;;2.87;72.03;99754.00;128031;1100;22508;-71
2021/03/21 11:25:15;;;;;;;57.43;51.70;;;;;;;2.85;71.58;99742.86;127973;1101;22502;-72
2021/03/21 11:27:49;;;;;;;62.27;56.02;;;;;;;2.79;71.85;99742.42;128148;1101;22518;-72
2021/03/21 11:30:27;;;;;;;77.08;69.10;;;;;;;2.85;71.67;99745.47;127918;1101;22342;-72
2021/03/21 11:33:26;;;;;;;81.70;71.85;;;;;;;2.86;71.86;99732.28;127972;1101;22503;-71
2021/03/21 11:36:46;;;;;;;52.70;46.98;;;;;;;2.96;71.81;99733.13;127956;1101;24588;-72
2021/03/21 11:39:32;;;;;;;49.55;44.15;;;;;;;3.04;71.80;99735.91;127966;1101;24362;-72
2021/03/21 11:42:02;;;;;;;49.67;44.75;;;;;;;3.10;72.17;99728.48;127986;1101;23029;-72
2021/03/21 11:44:32;;;;;;;54.53;47.48;;;;;;;3.13;71.37;99733.44;128002;1101;22495;-72
2021/03/21 11:47:13;;;;;;;52.43;46.58;;;;;;;3.16;71.79;99733.98;128276;1101;22651;-72
2021/03/21 11:49:43;;;;;;;50.67;45.43;;;;;;;3.19;72.44;99732.90;128001;1101;22498;-72
2021/03/21 11:52:11;;;;;;;61.00;54.18;;;;;;;3.23;71.47;99724.68;127924;1101;22589;-72
2021/03/21 11:54:44;;;;;;;48.68;43.83;;;;;;;3.24;71.47;99715.06;127950;1101;22478;-72
2021/03/21 11:57:52;;;;;;;53.70;48.05;;;;;;;3.26;71.88;99707.90;127951;1101;22499;-73
2021/03/21 12:00:27;;;;;;;56.60;50.38;;;;;;;3.26;72.12;99711.33;128100;1099;22459;-72
2021/03/21 12:03:29;;;;;;;58.55;49.33;;;;;;;3.27;71.66;99707.78;127997;1101;23363;-72
2021/03/21 12:06:35;;;;;;;50.92;45.08;;;;;;;3.24;71.90;99704.62;127489;1105;22517;-72
2021/03/21 12:09:35;;;;;;;49.35;44.38;;;;;;;3.24;72.25;99709.84;127533;1105;22551;-75
2021/03/21 12:12:44;;;;;;;43.38;38.80;;;;;;;3.26;71.89;99706.11;127669;1104;24992;-76
2021/03/21 12:15:24;;;;;;;50.28;45.25;;;;;;;3.27;72.02;99697.34;127939;1104;22983;-73
2021/03/21 12:18:17;;;;;;;47.33;42.33;;;;;;;3.30;72.01;99702.28;127909;1104;22668;-72
2021/03/21 12:20:51;;;;;;;42.65;38.30;;;;;;;3.35;71.97;99703.66;127929;1102;22529;-72
2021/03/21 12:23:31;;;;;;;46.58;39.67;;;;;;;3.35;72.36;99687.98;127712;1104;22479;-72
2021/03/21 12:26:45;;;;;;;41.30;37.10;;;;;;;3.35;72.48;99696.64;127933;1102;22535;-73
2021/03/21 12:29:28;;;;;;;41.98;37.35;;;;;;;3.34;72.61;99696.80;127413;1104;24542;-72
2021/03/21 12:32:34;;;;;;;44.85;40.00;;;;;;;3.37;72.83;99688.69;127845;1104;22505;-71